sensor_id;sensor_type;location;lat;lon;timestamp;P1;durP1;ratioP1;P2;durP2;ratioP2
18172;SDS011;9211;48.818;9.312;2023-04-01T00:01:05;3.00;;;0.73;;
18172;SDS011;9211;48.818;9.312;2023-04-01T00:03:33;3.45;;;0.50;;
18172;SDS011;9211;48.818;9.312;2023-04-01T00:06:01;2.47;;;0.65;;
18172;SDS011;9211;48.818;9.312;2023-04-01T00:08:28;2.15;;;0.60;;
18172;SDS011;9211;48.818;9.312;2023-04-01T00:10:55;2.67;;;0.60;;
18172;SDS011;9211;48.818;9.312;2023-04-01T00:13:24;3.30;;;0.60;;
18172;SDS011;9211;48.818;9.312;2023-04-01T00:15:52;1.67;;;0.50;;
18172;SDS011;9211;48.818;9.312;2023-04-01T00:18:19;1.85;;;0.55;;
18172;SDS011;9211;48.818;9.312;2023-04-01T00:20:46;5.45;;;0.77;;
18172;SDS011;9211;48.818;9.312;2023-04-01T00:23:15;2.28;;;0.57;;
18172;SDS011;9211;48.818;9.312;2023-04-01T00:25:43;3.30;;;0.70;;
18172;SDS011;9211;48.818;9.312;2023-04-01T00:28:13;2.65;;;0.68;;
18172;SDS011;9211;48.818;9.312;2023-04-01T00:30:41;4.13;;;0.77;;
18172;SDS011;9211;48.818;9.312;2023-04-01T00:33:08;2.05;;;0.60;;
18172;SDS011;9211;48.818;9.312;2023-04-01T00:35:35;3.83;;;0.70;;
18172;SDS011;9211;48.818;9.312;2023-04-01T00:38:02;2.85;;;0.70;;
18172;SDS011;9211;48.818;9.312;2023-04-01T00:40:32;4.68;;;0.80;;
18172;SDS011;9211;48.818;9.312;2023-04-01T00:43:00;2.50;;;0.70;;
18172;SDS011;9211;48.818;9.312;2023-04-01T00:45:29;4.10;;;0.82;;
18172;SDS011;9211;48.818;9.312;2023-04-01T00:48:00;2.55;;;0.77;;
18172;SDS011;9211;48.818;9.312;2023-04-01T00:50:31;4.35;;;0.93;;
18172;SDS011;9211;48.818;9.312;2023-04-01T00:53:00;3.88;;;0.70;;
18172;SDS011;9211;48.818;9.312;2023-04-01T00:55:29;4.17;;;0.70;;
18172;SDS011;9211;48.818;9.312;2023-04-01T00:58:00;5.07;;;0.85;;
18172;SDS011;9211;48.818;9.312;2023-04-01T01:00:31;4.00;;;0.75;;
18172;SDS011;9211;48.818;9.312;2023-04-01T01:03:00;3.83;;;0.80;;
18172;SDS011;9211;48.818;9.312;2023-04-01T01:05:30;4.70;;;0.90;;
18172;SDS011;9211;48.818;9.312;2023-04-01T01:08:06;5.13;;;1.10;;
18172;SDS011;9211;48.818;9.312;2023-04-01T01:10:39;5.40;;;0.70;;
18172;SDS011;9211;48.818;9.312;2023-04-01T01:13:14;3.97;;;0.60;;
18172;SDS011;9211;48.818;9.312;2023-04-01T01:15:47;4.80;;;0.95;;
18172;SDS011;9211;48.818;9.312;2023-04-01T01:18:22;4.18;;;0.80;;
18172;SDS011;9211;48.818;9.312;2023-04-01T01:24:11;4.78;;;1.00;;
18172;SDS011;9211;48.818;9.312;2023-04-01T01:26:53;3.78;;;0.70;;
18172;SDS011;9211;48.818;9.312;2023-04-01T01:29:41;2.03;;;0.50;;
18172;SDS011;9211;48.818;9.312;2023-04-01T01:32:32;3.33;;;0.70;;
18172;SDS011;9211;48.818;9.312;2023-04-01T01:35:13;3.40;;;0.68;;
18172;SDS011;9211;48.818;9.312;2023-04-01T01:37:46;2.88;;;0.80;;
18172;SDS011;9211;48.818;9.312;2023-04-01T01:40:16;3.03;;;0.82;;
18172;SDS011;9211;48.818;9.312;2023-04-01T01:42:44;3.03;;;0.80;;
18172;SDS011;9211;48.818;9.312;2023-04-01T01:45:15;2.22;;;0.80;;
18172;SDS011;9211;48.818;9.312;2023-04-01T01:47:45;2.70;;;0.73;;
18172;SDS011;9211;48.818;9.312;2023-04-01T01:50:15;2.63;;;0.52;;
18172;SDS011;9211;48.818;9.312;2023-04-01T01:52:43;1.58;;;0.60;;
18172;SDS011;9211;48.818;9.312;2023-04-01T01:55:24;1.80;;;0.50;;
18172;SDS011;9211;48.818;9.312;2023-04-01T01:57:55;2.65;;;0.60;;
18172;SDS011;9211;48.818;9.312;2023-04-01T02:03:08;2.83;;;0.60;;
18172;SDS011;9211;48.818;9.312;2023-04-01T02:05:39;2.42;;;0.52;;
18172;SDS011;9211;48.818;9.312;2023-04-01T02:08:09;2.45;;;0.60;;
18172;SDS011;9211;48.818;9.312;2023-04-01T02:10:42;2.38;;;0.77;;
18172;SDS011;9211;48.818;9.312;2023-04-01T02:13:16;3.28;;;0.60;;
18172;SDS011;9211;48.818;9.312;2023-04-01T02:15:49;3.30;;;0.63;;
18172;SDS011;9211;48.818;9.312;2023-04-01T02:18:20;2.42;;;0.50;;
18172;SDS011;9211;48.818;9.312;2023-04-01T02:20:49;2.77;;;0.60;;
18172;SDS011;9211;48.818;9.312;2023-04-01T02:23:17;2.85;;;0.52;;
18172;SDS011;9211;48.818;9.312;2023-04-01T02:25:45;2.50;;;0.60;;
18172;SDS011;9211;48.818;9.312;2023-04-01T02:28:13;2.00;;;0.60;;
18172;SDS011;9211;48.818;9.312;2023-04-01T02:30:45;2.70;;;0.60;;
18172;SDS011;9211;48.818;9.312;2023-04-01T02:33:14;3.45;;;0.70;;
18172;SDS011;9211;48.818;9.312;2023-04-01T02:35:42;2.67;;;0.60;;
18172;SDS011;9211;48.818;9.312;2023-04-01T02:38:11;2.75;;;0.50;;
18172;SDS011;9211;48.818;9.312;2023-04-01T02:40:41;1.40;;;0.50;;
18172;SDS011;9211;48.818;9.312;2023-04-01T02:43:13;3.50;;;0.50;;
18172;SDS011;9211;48.818;9.312;2023-04-01T02:45:41;3.60;;;0.45;;
18172;SDS011;9211;48.818;9.312;2023-04-01T02:48:08;2.65;;;0.40;;
18172;SDS011;9211;48.818;9.312;2023-04-01T02:50:35;1.50;;;0.50;;
18172;SDS011;9211;48.818;9.312;2023-04-01T02:53:02;3.17;;;0.60;;
18172;SDS011;9211;48.818;9.312;2023-04-01T02:55:32;1.60;;;0.40;;
18172;SDS011;9211;48.818;9.312;2023-04-01T02:57:59;2.20;;;0.40;;
18172;SDS011;9211;48.818;9.312;2023-04-01T03:00:28;1.73;;;0.30;;
18172;SDS011;9211;48.818;9.312;2023-04-01T03:02:55;1.40;;;0.30;;
18172;SDS011;9211;48.818;9.312;2023-04-01T03:05:22;0.93;;;0.40;;
18172;SDS011;9211;48.818;9.312;2023-04-01T03:07:49;2.20;;;0.40;;
18172;SDS011;9211;48.818;9.312;2023-04-01T03:10:16;0.82;;;0.40;;
18172;SDS011;9211;48.818;9.312;2023-04-01T03:12:45;1.80;;;0.50;;
18172;SDS011;9211;48.818;9.312;2023-04-01T03:15:12;1.50;;;0.47;;
18172;SDS011;9211;48.818;9.312;2023-04-01T03:17:40;1.73;;;0.40;;
18172;SDS011;9211;48.818;9.312;2023-04-01T03:20:09;1.27;;;0.30;;
18172;SDS011;9211;48.818;9.312;2023-04-01T03:22:37;1.60;;;0.38;;
18172;SDS011;9211;48.818;9.312;2023-04-01T03:25:05;1.45;;;0.40;;
18172;SDS011;9211;48.818;9.312;2023-04-01T03:27:33;1.25;;;0.50;;
18172;SDS011;9211;48.818;9.312;2023-04-01T03:30:02;2.07;;;0.33;;
18172;SDS011;9211;48.818;9.312;2023-04-01T03:32:33;0.77;;;0.30;;
18172;SDS011;9211;48.818;9.312;2023-04-01T03:35:00;1.60;;;0.40;;
18172;SDS011;9211;48.818;9.312;2023-04-01T03:37:27;0.70;;;0.20;;
18172;SDS011;9211;48.818;9.312;2023-04-01T03:39:54;1.95;;;0.40;;
18172;SDS011;9211;48.818;9.312;2023-04-01T03:42:21;1.77;;;0.47;;
18172;SDS011;9211;48.818;9.312;2023-04-01T03:44:48;1.52;;;0.30;;
18172;SDS011;9211;48.818;9.312;2023-04-01T03:47:17;1.38;;;0.38;;
18172;SDS011;9211;48.818;9.312;2023-04-01T03:49:44;2.15;;;0.38;;
18172;SDS011;9211;48.818;9.312;2023-04-01T03:52:11;2.40;;;0.30;;
18172;SDS011;9211;48.818;9.312;2023-04-01T03:54:38;2.88;;;0.40;;
18172;SDS011;9211;48.818;9.312;2023-04-01T03:57:06;1.58;;;0.45;;
18172;SDS011;9211;48.818;9.312;2023-04-01T03:59:34;1.33;;;0.32;;
18172;SDS011;9211;48.818;9.312;2023-04-01T04:02:01;2.50;;;0.40;;
18172;SDS011;9211;48.818;9.312;2023-04-01T04:04:30;2.03;;;0.40;;
18172;SDS011;9211;48.818;9.312;2023-04-01T04:06:57;2.33;;;0.40;;
18172;SDS011;9211;48.818;9.312;2023-04-01T04:09:27;1.42;;;0.40;;
18172;SDS011;9211;48.818;9.312;2023-04-01T04:11:56;2.17;;;0.50;;
18172;SDS011;9211;48.818;9.312;2023-04-01T04:14:23;2.08;;;0.50;;
18172;SDS011;9211;48.818;9.312;2023-04-01T04:16:51;1.58;;;0.40;;
18172;SDS011;9211;48.818;9.312;2023-04-01T04:19:18;1.80;;;0.40;;
18172;SDS011;9211;48.818;9.312;2023-04-01T04:21:46;1.55;;;0.40;;
18172;SDS011;9211;48.818;9.312;2023-04-01T04:24:13;1.73;;;0.50;;
18172;SDS011;9211;48.818;9.312;2023-04-01T04:26:56;2.08;;;0.50;;
18172;SDS011;9211;48.818;9.312;2023-04-01T04:29:23;3.25;;;0.40;;
18172;SDS011;9211;48.818;9.312;2023-04-01T04:31:51;3.75;;;0.40;;
18172;SDS011;9211;48.818;9.312;2023-04-01T04:34:18;1.80;;;0.50;;
18172;SDS011;9211;48.818;9.312;2023-04-01T04:36:48;1.80;;;0.50;;
18172;SDS011;9211;48.818;9.312;2023-04-01T04:39:16;1.03;;;0.37;;
18172;SDS011;9211;48.818;9.312;2023-04-01T04:41:43;1.08;;;0.30;;
18172;SDS011;9211;48.818;9.312;2023-04-01T04:44:10;0.98;;;0.30;;
18172;SDS011;9211;48.818;9.312;2023-04-01T04:46:38;1.83;;;0.30;;
18172;SDS011;9211;48.818;9.312;2023-04-01T04:49:11;0.95;;;0.30;;
18172;SDS011;9211;48.818;9.312;2023-04-01T04:51:38;2.13;;;0.30;;
18172;SDS011;9211;48.818;9.312;2023-04-01T04:54:07;1.45;;;0.40;;
18172;SDS011;9211;48.818;9.312;2023-04-01T04:57:06;1.57;;;0.30;;
18172;SDS011;9211;48.818;9.312;2023-04-01T04:59:40;1.98;;;0.40;;
18172;SDS011;9211;48.818;9.312;2023-04-01T05:02:11;1.20;;;0.30;;
18172;SDS011;9211;48.818;9.312;2023-04-01T05:04:38;1.92;;;0.30;;
18172;SDS011;9211;48.818;9.312;2023-04-01T05:07:08;1.17;;;0.52;;
18172;SDS011;9211;48.818;9.312;2023-04-01T05:09:36;1.65;;;0.40;;
18172;SDS011;9211;48.818;9.312;2023-04-01T05:12:04;1.50;;;0.40;;
18172;SDS011;9211;48.818;9.312;2023-04-01T05:14:51;1.52;;;0.32;;
18172;SDS011;9211;48.818;9.312;2023-04-01T05:17:18;1.55;;;0.40;;
18172;SDS011;9211;48.818;9.312;2023-04-01T05:19:45;2.60;;;0.47;;
18172;SDS011;9211;48.818;9.312;2023-04-01T05:22:12;2.30;;;0.50;;
18172;SDS011;9211;48.818;9.312;2023-04-01T05:24:41;1.93;;;0.50;;
18172;SDS011;9211;48.818;9.312;2023-04-01T05:27:08;2.97;;;0.50;;
18172;SDS011;9211;48.818;9.312;2023-04-01T05:29:38;2.85;;;0.60;;
18172;SDS011;9211;48.818;9.312;2023-04-01T05:32:08;2.70;;;0.57;;
18172;SDS011;9211;48.818;9.312;2023-04-01T05:34:35;1.45;;;0.52;;
18172;SDS011;9211;48.818;9.312;2023-04-01T05:37:02;2.25;;;0.50;;
18172;SDS011;9211;48.818;9.312;2023-04-01T05:39:29;2.92;;;0.52;;
18172;SDS011;9211;48.818;9.312;2023-04-01T05:41:58;2.10;;;0.50;;
18172;SDS011;9211;48.818;9.312;2023-04-01T05:44:25;4.60;;;0.60;;
18172;SDS011;9211;48.818;9.312;2023-04-01T05:47:01;2.65;;;0.60;;
18172;SDS011;9211;48.818;9.312;2023-04-01T05:49:29;3.28;;;0.47;;
18172;SDS011;9211;48.818;9.312;2023-04-01T05:51:56;3.22;;;0.65;;
18172;SDS011;9211;48.818;9.312;2023-04-01T05:54:24;2.15;;;0.50;;
18172;SDS011;9211;48.818;9.312;2023-04-01T05:56:51;2.50;;;0.57;;
18172;SDS011;9211;48.818;9.312;2023-04-01T05:59:20;1.97;;;0.53;;
18172;SDS011;9211;48.818;9.312;2023-04-01T06:01:47;2.00;;;0.40;;
18172;SDS011;9211;48.818;9.312;2023-04-01T06:04:15;2.03;;;0.50;;
18172;SDS011;9211;48.818;9.312;2023-04-01T06:06:44;3.27;;;0.60;;
18172;SDS011;9211;48.818;9.312;2023-04-01T06:09:13;1.50;;;0.50;;
18172;SDS011;9211;48.818;9.312;2023-04-01T06:11:51;2.20;;;0.60;;
18172;SDS011;9211;48.818;9.312;2023-04-01T06:14:49;3.63;;;0.60;;
18172;SDS011;9211;48.818;9.312;2023-04-01T06:17:30;5.25;;;0.65;;
18172;SDS011;9211;48.818;9.312;2023-04-01T06:20:08;2.78;;;0.45;;
18172;SDS011;9211;48.818;9.312;2023-04-01T06:22:55;2.35;;;0.57;;
18172;SDS011;9211;48.818;9.312;2023-04-01T06:25:40;2.55;;;0.60;;
18172;SDS011;9211;48.818;9.312;2023-04-01T06:28:41;2.22;;;0.50;;
18172;SDS011;9211;48.818;9.312;2023-04-01T06:31:23;2.28;;;0.57;;
18172;SDS011;9211;48.818;9.312;2023-04-01T06:34:05;1.95;;;0.50;;
18172;SDS011;9211;48.818;9.312;2023-04-01T06:36:53;4.68;;;0.60;;
18172;SDS011;9211;48.818;9.312;2023-04-01T06:39:35;2.83;;;0.80;;
18172;SDS011;9211;48.818;9.312;2023-04-01T06:45:40;2.53;;;0.50;;
18172;SDS011;9211;48.818;9.312;2023-04-01T06:48:36;2.85;;;0.60;;
18172;SDS011;9211;48.818;9.312;2023-04-01T06:51:34;2.67;;;0.50;;
18172;SDS011;9211;48.818;9.312;2023-04-01T06:54:30;1.25;;;0.47;;
18172;SDS011;9211;48.818;9.312;2023-04-01T06:57:03;2.17;;;0.40;;
18172;SDS011;9211;48.818;9.312;2023-04-01T06:59:43;1.60;;;0.50;;
18172;SDS011;9211;48.818;9.312;2023-04-01T07:02:16;1.90;;;0.40;;
18172;SDS011;9211;48.818;9.312;2023-04-01T07:04:53;1.60;;;0.40;;
18172;SDS011;9211;48.818;9.312;2023-04-01T07:07:24;2.03;;;0.40;;
18172;SDS011;9211;48.818;9.312;2023-04-01T07:10:02;1.88;;;0.47;;
18172;SDS011;9211;48.818;9.312;2023-04-01T07:12:55;2.90;;;0.55;;
18172;SDS011;9211;48.818;9.312;2023-04-01T07:16:08;2.17;;;0.50;;
18172;SDS011;9211;48.818;9.312;2023-04-01T07:18:43;1.17;;;0.40;;
18172;SDS011;9211;48.818;9.312;2023-04-01T07:21:19;1.58;;;0.50;;
18172;SDS011;9211;48.818;9.312;2023-04-01T07:23:53;2.00;;;0.50;;
18172;SDS011;9211;48.818;9.312;2023-04-01T07:26:33;1.30;;;0.38;;
18172;SDS011;9211;48.818;9.312;2023-04-01T07:29:21;2.90;;;0.40;;
18172;SDS011;9211;48.818;9.312;2023-04-01T07:34:47;1.38;;;0.32;;
18172;SDS011;9211;48.818;9.312;2023-04-01T07:37:25;2.83;;;0.50;;
18172;SDS011;9211;48.818;9.312;2023-04-01T07:39:59;2.78;;;0.50;;
18172;SDS011;9211;48.818;9.312;2023-04-01T07:42:42;2.00;;;0.43;;
18172;SDS011;9211;48.818;9.312;2023-04-01T07:45:22;2.70;;;0.57;;
18172;SDS011;9211;48.818;9.312;2023-04-01T07:48:01;3.00;;;0.60;;
18172;SDS011;9211;48.818;9.312;2023-04-01T07:50:37;2.30;;;0.50;;
18172;SDS011;9211;48.818;9.312;2023-04-01T07:53:15;1.67;;;0.47;;
18172;SDS011;9211;48.818;9.312;2023-04-01T07:55:53;1.80;;;0.40;;
18172;SDS011;9211;48.818;9.312;2023-04-01T07:58:33;2.28;;;0.40;;
18172;SDS011;9211;48.818;9.312;2023-04-01T08:01:11;1.42;;;0.50;;
18172;SDS011;9211;48.818;9.312;2023-04-01T08:04:07;2.70;;;0.60;;
18172;SDS011;9211;48.818;9.312;2023-04-01T08:06:57;1.38;;;0.50;;
18172;SDS011;9211;48.818;9.312;2023-04-01T08:09:32;1.77;;;0.50;;
18172;SDS011;9211;48.818;9.312;2023-04-01T08:12:27;2.67;;;0.50;;
18172;SDS011;9211;48.818;9.312;2023-04-01T08:15:27;3.08;;;0.50;;
18172;SDS011;9211;48.818;9.312;2023-04-01T08:18:10;3.45;;;0.80;;
18172;SDS011;9211;48.818;9.312;2023-04-01T08:20:44;3.73;;;0.50;;
18172;SDS011;9211;48.818;9.312;2023-04-01T08:23:15;1.90;;;0.40;;
18172;SDS011;9211;48.818;9.312;2023-04-01T08:25:48;1.63;;;0.50;;
18172;SDS011;9211;48.818;9.312;2023-04-01T08:28:21;1.90;;;0.50;;
18172;SDS011;9211;48.818;9.312;2023-04-01T08:30:53;1.75;;;0.50;;
18172;SDS011;9211;48.818;9.312;2023-04-01T08:33:26;1.80;;;0.50;;
18172;SDS011;9211;48.818;9.312;2023-04-01T08:36:03;1.42;;;0.32;;
18172;SDS011;9211;48.818;9.312;2023-04-01T08:38:34;2.40;;;0.50;;
18172;SDS011;9211;48.818;9.312;2023-04-01T08:41:10;2.15;;;0.63;;
18172;SDS011;9211;48.818;9.312;2023-04-01T08:44:16;1.95;;;0.43;;
18172;SDS011;9211;48.818;9.312;2023-04-01T08:47:13;1.77;;;0.57;;
18172;SDS011;9211;48.818;9.312;2023-04-01T08:50:01;2.83;;;0.50;;
18172;SDS011;9211;48.818;9.312;2023-04-01T08:53:16;1.92;;;0.40;;
18172;SDS011;9211;48.818;9.312;2023-04-01T08:55:56;1.50;;;0.35;;
18172;SDS011;9211;48.818;9.312;2023-04-01T08:58:42;2.53;;;0.60;;
18172;SDS011;9211;48.818;9.312;2023-04-01T09:01:36;1.63;;;0.53;;
18172;SDS011;9211;48.818;9.312;2023-04-01T09:04:39;2.95;;;0.60;;
18172;SDS011;9211;48.818;9.312;2023-04-01T09:07:21;1.48;;;0.45;;
18172;SDS011;9211;48.818;9.312;2023-04-01T09:10:15;1.42;;;0.40;;
18172;SDS011;9211;48.818;9.312;2023-04-01T09:15:46;1.20;;;0.40;;
18172;SDS011;9211;48.818;9.312;2023-04-01T09:18:38;1.77;;;0.43;;
18172;SDS011;9211;48.818;9.312;2023-04-01T09:24:31;1.02;;;0.30;;
18172;SDS011;9211;48.818;9.312;2023-04-01T09:27:09;1.85;;;0.60;;
18172;SDS011;9211;48.818;9.312;2023-04-01T09:30:06;2.25;;;0.50;;
18172;SDS011;9211;48.818;9.312;2023-04-01T09:36:03;0.82;;;0.30;;
18172;SDS011;9211;48.818;9.312;2023-04-01T09:38:43;2.50;;;0.60;;
18172;SDS011;9211;48.818;9.312;2023-04-01T09:41:24;0.80;;;0.40;;
18172;SDS011;9211;48.818;9.312;2023-04-01T09:44:18;0.88;;;0.30;;
18172;SDS011;9211;48.818;9.312;2023-04-01T09:47:14;1.20;;;0.40;;
18172;SDS011;9211;48.818;9.312;2023-04-01T09:49:57;1.20;;;0.40;;
18172;SDS011;9211;48.818;9.312;2023-04-01T09:52:42;1.38;;;0.55;;
18172;SDS011;9211;48.818;9.312;2023-04-01T09:58:40;1.57;;;0.33;;
18172;SDS011;9211;48.818;9.312;2023-04-01T10:02:18;1.48;;;0.60;;
18172;SDS011;9211;48.818;9.312;2023-04-01T10:05:15;0.95;;;0.30;;
18172;SDS011;9211;48.818;9.312;2023-04-01T10:11:22;1.60;;;0.40;;
18172;SDS011;9211;48.818;9.312;2023-04-01T10:14:34;0.52;;;0.30;;
18172;SDS011;9211;48.818;9.312;2023-04-01T10:20:47;0.50;;;0.38;;
18172;SDS011;9211;48.818;9.312;2023-04-01T10:24:00;0.70;;;0.30;;
18172;SDS011;9211;48.818;9.312;2023-04-01T10:26:59;1.23;;;0.30;;
18172;SDS011;9211;48.818;9.312;2023-04-01T10:36:06;0.50;;;0.20;;
18172;SDS011;9211;48.818;9.312;2023-04-01T10:39:02;1.20;;;0.30;;
18172;SDS011;9211;48.818;9.312;2023-04-01T10:52:09;0.70;;;0.30;;
18172;SDS011;9211;48.818;9.312;2023-04-01T10:55:26;0.70;;;0.30;;
18172;SDS011;9211;48.818;9.312;2023-04-01T10:58:34;0.50;;;0.20;;
18172;SDS011;9211;48.818;9.312;2023-04-01T11:05:28;0.52;;;0.30;;
18172;SDS011;9211;48.818;9.312;2023-04-01T11:11:37;0.80;;;0.50;;
18172;SDS011;9211;48.818;9.312;2023-04-01T11:14:32;0.40;;;0.40;;
18172;SDS011;9211;48.818;9.312;2023-04-01T11:23:48;0.23;;;0.20;;
18172;SDS011;9211;48.818;9.312;2023-04-01T11:26:23;0.55;;;0.20;;
18172;SDS011;9211;48.818;9.312;2023-04-01T11:29:57;1.33;;;0.22;;
18172;SDS011;9211;48.818;9.312;2023-04-01T11:32:47;0.95;;;0.40;;
18172;SDS011;9211;48.818;9.312;2023-04-01T11:35:25;0.45;;;0.30;;
18172;SDS011;9211;48.818;9.312;2023-04-01T11:38:09;0.38;;;0.22;;
18172;SDS011;9211;48.818;9.312;2023-04-01T11:40:56;0.40;;;0.27;;
18172;SDS011;9211;48.818;9.312;2023-04-01T11:43:55;0.43;;;0.30;;
18172;SDS011;9211;48.818;9.312;2023-04-01T11:46:51;0.28;;;0.20;;
18172;SDS011;9211;48.818;9.312;2023-04-01T11:49:33;0.30;;;0.20;;
18172;SDS011;9211;48.818;9.312;2023-04-01T11:52:25;0.20;;;0.20;;
18172;SDS011;9211;48.818;9.312;2023-04-01T11:55:06;0.60;;;0.20;;
18172;SDS011;9211;48.818;9.312;2023-04-01T11:57:52;0.38;;;0.20;;
18172;SDS011;9211;48.818;9.312;2023-04-01T12:00:43;0.30;;;0.20;;
18172;SDS011;9211;48.818;9.312;2023-04-01T12:06:21;1.00;;;0.30;;
18172;SDS011;9211;48.818;9.312;2023-04-01T12:08:58;1.08;;;0.32;;
18172;SDS011;9211;48.818;9.312;2023-04-01T12:11:33;0.80;;;0.30;;
18172;SDS011;9211;48.818;9.312;2023-04-01T12:14:08;0.40;;;0.22;;
18172;SDS011;9211;48.818;9.312;2023-04-01T12:16:46;2.20;;;0.22;;
18172;SDS011;9211;48.818;9.312;2023-04-01T12:19:23;0.30;;;0.28;;
18172;SDS011;9211;48.818;9.312;2023-04-01T12:21:59;0.40;;;0.30;;
18172;SDS011;9211;48.818;9.312;2023-04-01T12:24:46;0.70;;;0.22;;
18172;SDS011;9211;48.818;9.312;2023-04-01T12:30:10;0.60;;;0.30;;
18172;SDS011;9211;48.818;9.312;2023-04-01T12:33:01;0.65;;;0.30;;
18172;SDS011;9211;48.818;9.312;2023-04-01T12:35:52;0.30;;;0.30;;
18172;SDS011;9211;48.818;9.312;2023-04-01T12:38:30;0.90;;;0.20;;
18172;SDS011;9211;48.818;9.312;2023-04-01T12:41:03;0.40;;;0.30;;
18172;SDS011;9211;48.818;9.312;2023-04-01T12:43:58;0.40;;;0.30;;
18172;SDS011;9211;48.818;9.312;2023-04-01T12:47:02;0.40;;;0.30;;
18172;SDS011;9211;48.818;9.312;2023-04-01T12:49:50;0.30;;;0.30;;
18172;SDS011;9211;48.818;9.312;2023-04-01T12:52:25;0.40;;;0.30;;
18172;SDS011;9211;48.818;9.312;2023-04-01T12:58:23;1.50;;;0.30;;
18172;SDS011;9211;48.818;9.312;2023-04-01T13:07:41;0.30;;;0.20;;
18172;SDS011;9211;48.818;9.312;2023-04-01T13:10:27;0.30;;;0.20;;
18172;SDS011;9211;48.818;9.312;2023-04-01T13:16:11;0.30;;;0.20;;
18172;SDS011;9211;48.818;9.312;2023-04-01T13:18:47;0.63;;;0.30;;
18172;SDS011;9211;48.818;9.312;2023-04-01T13:21:25;0.22;;;0.20;;
18172;SDS011;9211;48.818;9.312;2023-04-01T13:24:02;2.40;;;0.20;;
18172;SDS011;9211;48.818;9.312;2023-04-01T13:26:38;0.50;;;0.20;;
18172;SDS011;9211;48.818;9.312;2023-04-01T13:29:12;0.80;;;0.30;;
18172;SDS011;9211;48.818;9.312;2023-04-01T13:31:55;0.30;;;0.30;;
18172;SDS011;9211;48.818;9.312;2023-04-01T13:34:37;0.50;;;0.20;;
18172;SDS011;9211;48.818;9.312;2023-04-01T13:37:18;0.30;;;0.20;;
18172;SDS011;9211;48.818;9.312;2023-04-01T13:39:59;0.30;;;0.28;;
18172;SDS011;9211;48.818;9.312;2023-04-01T13:42:37;0.70;;;0.22;;
18172;SDS011;9211;48.818;9.312;2023-04-01T13:45:11;0.60;;;0.20;;
18172;SDS011;9211;48.818;9.312;2023-04-01T13:50:59;0.30;;;0.23;;
18172;SDS011;9211;48.818;9.312;2023-04-01T13:53:57;0.35;;;0.20;;
18172;SDS011;9211;48.818;9.312;2023-04-01T13:56:34;1.30;;;0.20;;
18172;SDS011;9211;48.818;9.312;2023-04-01T13:59:27;0.40;;;0.20;;
18172;SDS011;9211;48.818;9.312;2023-04-01T14:02:24;0.35;;;0.20;;
18172;SDS011;9211;48.818;9.312;2023-04-01T14:05:19;0.20;;;0.20;;
18172;SDS011;9211;48.818;9.312;2023-04-01T14:07:57;1.70;;;0.30;;
18172;SDS011;9211;48.818;9.312;2023-04-01T14:10:39;1.70;;;0.28;;
18172;SDS011;9211;48.818;9.312;2023-04-01T14:13:11;0.47;;;0.20;;
18172;SDS011;9211;48.818;9.312;2023-04-01T14:16:05;0.45;;;0.20;;
18172;SDS011;9211;48.818;9.312;2023-04-01T14:21:38;1.20;;;0.13;;
18172;SDS011;9211;48.818;9.312;2023-04-01T14:24:22;0.30;;;0.20;;
18172;SDS011;9211;48.818;9.312;2023-04-01T14:30:25;0.50;;;0.30;;
18172;SDS011;9211;48.818;9.312;2023-04-01T14:33:18;0.30;;;0.30;;
18172;SDS011;9211;48.818;9.312;2023-04-01T14:35:55;0.50;;;0.30;;
18172;SDS011;9211;48.818;9.312;2023-04-01T14:38:52;0.50;;;0.30;;
18172;SDS011;9211;48.818;9.312;2023-04-01T14:41:27;0.60;;;0.40;;
18172;SDS011;9211;48.818;9.312;2023-04-01T14:44:21;0.40;;;0.30;;
18172;SDS011;9211;48.818;9.312;2023-04-01T14:50:03;0.30;;;0.20;;
18172;SDS011;9211;48.818;9.312;2023-04-01T14:52:36;1.00;;;0.40;;
18172;SDS011;9211;48.818;9.312;2023-04-01T14:55:15;0.50;;;0.35;;
18172;SDS011;9211;48.818;9.312;2023-04-01T14:57:59;0.47;;;0.30;;
18172;SDS011;9211;48.818;9.312;2023-04-01T15:00:41;0.50;;;0.30;;
18172;SDS011;9211;48.818;9.312;2023-04-01T15:03:16;0.70;;;0.37;;
18172;SDS011;9211;48.818;9.312;2023-04-01T15:05:49;1.30;;;0.30;;
18172;SDS011;9211;48.818;9.312;2023-04-01T15:08:21;1.05;;;0.40;;
18172;SDS011;9211;48.818;9.312;2023-04-01T15:11:03;0.60;;;0.30;;
18172;SDS011;9211;48.818;9.312;2023-04-01T15:14:01;0.50;;;0.22;;
18172;SDS011;9211;48.818;9.312;2023-04-01T15:16:47;0.90;;;0.40;;
18172;SDS011;9211;48.818;9.312;2023-04-01T15:19:24;0.98;;;0.50;;
18172;SDS011;9211;48.818;9.312;2023-04-01T15:22:12;0.30;;;0.25;;
18172;SDS011;9211;48.818;9.312;2023-04-01T15:24:58;0.35;;;0.30;;
18172;SDS011;9211;48.818;9.312;2023-04-01T15:27:37;0.30;;;0.28;;
18172;SDS011;9211;48.818;9.312;2023-04-01T15:30:17;0.30;;;0.20;;
18172;SDS011;9211;48.818;9.312;2023-04-01T15:35:43;0.77;;;0.30;;
18172;SDS011;9211;48.818;9.312;2023-04-01T15:38:19;0.82;;;0.30;;
18172;SDS011;9211;48.818;9.312;2023-04-01T15:40:58;0.80;;;0.25;;
18172;SDS011;9211;48.818;9.312;2023-04-01T15:43:37;0.25;;;0.20;;
18172;SDS011;9211;48.818;9.312;2023-04-01T15:46:17;0.40;;;0.30;;
18172;SDS011;9211;48.818;9.312;2023-04-01T15:49:12;1.65;;;0.28;;
18172;SDS011;9211;48.818;9.312;2023-04-01T15:51:52;1.02;;;0.30;;
18172;SDS011;9211;48.818;9.312;2023-04-01T15:54:23;0.45;;;0.30;;
18172;SDS011;9211;48.818;9.312;2023-04-01T15:57:00;1.15;;;0.30;;
18172;SDS011;9211;48.818;9.312;2023-04-01T16:02:43;0.75;;;0.35;;
18172;SDS011;9211;48.818;9.312;2023-04-01T16:05:23;0.40;;;0.30;;
18172;SDS011;9211;48.818;9.312;2023-04-01T16:08:01;0.25;;;0.20;;
18172;SDS011;9211;48.818;9.312;2023-04-01T16:10:43;0.28;;;0.20;;
18172;SDS011;9211;48.818;9.312;2023-04-01T16:13:37;1.27;;;0.40;;
18172;SDS011;9211;48.818;9.312;2023-04-01T16:16:14;1.23;;;0.40;;
18172;SDS011;9211;48.818;9.312;2023-04-01T16:19:12;1.52;;;0.35;;
18172;SDS011;9211;48.818;9.312;2023-04-01T16:21:53;0.70;;;0.30;;
18172;SDS011;9211;48.818;9.312;2023-04-01T16:24:30;0.40;;;0.30;;
18172;SDS011;9211;48.818;9.312;2023-04-01T16:27:02;0.57;;;0.30;;
18172;SDS011;9211;48.818;9.312;2023-04-01T16:29:37;0.65;;;0.30;;
18172;SDS011;9211;48.818;9.312;2023-04-01T16:32:14;1.70;;;0.45;;
18172;SDS011;9211;48.818;9.312;2023-04-01T16:34:58;0.60;;;0.47;;
18172;SDS011;9211;48.818;9.312;2023-04-01T16:37:39;0.75;;;0.40;;
18172;SDS011;9211;48.818;9.312;2023-04-01T16:40:15;0.43;;;0.30;;
18172;SDS011;9211;48.818;9.312;2023-04-01T16:42:51;1.02;;;0.40;;
18172;SDS011;9211;48.818;9.312;2023-04-01T16:45:22;0.40;;;0.30;;
18172;SDS011;9211;48.818;9.312;2023-04-01T16:47:56;0.60;;;0.40;;
18172;SDS011;9211;48.818;9.312;2023-04-01T16:50:39;0.90;;;0.50;;
18172;SDS011;9211;48.818;9.312;2023-04-01T16:53:16;2.00;;;0.50;;
18172;SDS011;9211;48.818;9.312;2023-04-01T16:55:48;1.10;;;0.50;;
18172;SDS011;9211;48.818;9.312;2023-04-01T16:58:18;0.68;;;0.40;;
18172;SDS011;9211;48.818;9.312;2023-04-01T17:00:51;1.30;;;0.50;;
18172;SDS011;9211;48.818;9.312;2023-04-01T17:03:25;0.93;;;0.45;;
18172;SDS011;9211;48.818;9.312;2023-04-01T17:06:00;0.70;;;0.40;;
18172;SDS011;9211;48.818;9.312;2023-04-01T17:08:43;1.63;;;0.57;;
18172;SDS011;9211;48.818;9.312;2023-04-01T17:11:28;0.63;;;0.40;;
18172;SDS011;9211;48.818;9.312;2023-04-01T17:14:05;1.48;;;0.50;;
18172;SDS011;9211;48.818;9.312;2023-04-01T17:16:44;0.70;;;0.50;;
18172;SDS011;9211;48.818;9.312;2023-04-01T17:19:23;0.70;;;0.40;;
18172;SDS011;9211;48.818;9.312;2023-04-01T17:22:22;1.10;;;0.60;;
18172;SDS011;9211;48.818;9.312;2023-04-01T17:25:02;1.60;;;0.70;;
18172;SDS011;9211;48.818;9.312;2023-04-01T17:27:48;2.38;;;0.90;;
18172;SDS011;9211;48.818;9.312;2023-04-01T17:30:21;2.40;;;1.10;;
18172;SDS011;9211;48.818;9.312;2023-04-01T17:33:13;1.55;;;0.80;;
18172;SDS011;9211;48.818;9.312;2023-04-01T17:35:53;3.20;;;0.90;;
18172;SDS011;9211;48.818;9.312;2023-04-01T17:38:33;2.25;;;0.80;;
18172;SDS011;9211;48.818;9.312;2023-04-01T17:41:15;2.95;;;0.90;;
18172;SDS011;9211;48.818;9.312;2023-04-01T17:43:51;1.50;;;0.90;;
18172;SDS011;9211;48.818;9.312;2023-04-01T17:46:28;1.08;;;0.60;;